createdAt,value
2022-11-26T00:00:14.644Z,9.23
2022-11-26T00:03:01.214Z,9.32
2022-11-26T00:05:49.444Z,8.88
2022-11-26T00:08:36.307Z,9.98
2022-11-26T00:11:22.703Z,9.95
2022-11-26T00:14:16.681Z,9.68
2022-11-26T00:17:03.076Z,9.70
2022-11-26T00:19:50.282Z,10.10
2022-11-26T00:22:45.068Z,9.65
2022-11-26T00:25:39.115Z,9.60
2022-11-26T00:28:26.665Z,9.93
2022-11-26T00:31:15.276Z,10.10
2022-11-26T00:34:01.800Z,9.15
2022-11-26T00:36:48.548Z,9.55
2022-11-26T00:39:34.697Z,9.85
2022-11-26T00:42:21.067Z,9.95
2022-11-26T00:45:15.519Z,9.77
2022-11-26T00:48:02.028Z,9.25
2022-11-26T00:50:50.676Z,9.40
2022-11-26T00:53:36.770Z,9.70
2022-11-26T00:56:23.255Z,9.93
2022-11-26T00:59:15.188Z,9.60
2022-11-26T01:02:01.556Z,9.55
2022-11-26T01:04:47.837Z,10.07
2022-11-26T01:07:35.115Z,9.57
2022-11-26T01:10:23.608Z,9.98
2022-11-26T01:13:10.912Z,9.40
2022-11-26T01:15:58.130Z,9.73
2022-11-26T01:18:44.546Z,9.80
2022-11-26T01:21:31.837Z,10.25
2022-11-26T01:24:18.108Z,9.63
2022-11-26T01:27:04.499Z,9.75
2022-11-26T01:29:50.663Z,9.30
2022-11-26T01:32:36.747Z,8.88
2022-11-26T01:35:23.713Z,9.90
2022-11-26T01:38:13.050Z,10.52
2022-11-26T01:41:08.206Z,10.00
2022-11-26T01:43:56.075Z,10.18
2022-11-26T01:47:07.209Z,9.98
2022-11-26T01:50:12.296Z,10.85
2022-11-26T01:53:01.993Z,10.23
2022-11-26T01:56:11.395Z,10.07
2022-11-26T01:59:02.462Z,9.82
2022-11-26T02:01:50.085Z,10.00
2022-11-26T02:04:45.675Z,9.95
2022-11-26T02:07:31.908Z,10.52
2022-11-26T02:10:17.974Z,10.98
2022-11-26T02:13:04.482Z,11.43
2022-11-26T02:16:11.697Z,10.35
2022-11-26T02:19:21.201Z,10.68
2022-11-26T02:22:26.406Z,10.98
2022-11-26T02:25:13.384Z,10.35
2022-11-26T02:28:21.516Z,10.65
2022-11-26T02:31:07.807Z,10.70
2022-11-26T02:34:06.240Z,11.18
2022-11-26T02:36:55.544Z,10.68
2022-11-26T02:39:42.633Z,10.77
2022-11-26T02:42:30.302Z,11.23
2022-11-26T02:45:28.605Z,10.75
2022-11-26T02:48:17.190Z,10.40
2022-11-26T02:51:06.433Z,10.80
2022-11-26T02:53:52.927Z,10.02
2022-11-26T02:56:40.348Z,11.20
2022-11-26T02:59:26.701Z,10.43
2022-11-26T03:02:19.548Z,10.52
2022-11-26T03:05:31.193Z,10.15
2022-11-26T03:08:18.011Z,10.25
2022-11-26T03:11:04.898Z,10.07
2022-11-26T03:13:51.113Z,9.98
2022-11-26T03:16:37.270Z,10.30
2022-11-26T03:19:23.399Z,10.38
2022-11-26T03:22:10.035Z,10.60
2022-11-26T03:24:56.460Z,10.10
2022-11-26T03:27:42.656Z,10.48
2022-11-26T03:30:28.868Z,10.75
2022-11-26T03:33:15.497Z,10.73
2022-11-26T03:36:01.611Z,10.65
2022-11-26T03:38:48.402Z,11.15
2022-11-26T03:41:34.588Z,11.02
2022-11-26T03:44:20.792Z,10.73
2022-11-26T03:47:07.063Z,11.45
2022-11-26T03:49:53.950Z,10.90
2022-11-26T03:52:40.351Z,11.65
2022-11-26T03:55:26.975Z,10.70
2022-11-26T03:58:13.417Z,11.38
2022-11-26T04:00:59.617Z,10.57
2022-11-26T04:03:45.988Z,10.95
2022-11-26T04:06:32.378Z,10.50
2022-11-26T04:09:19.518Z,10.52
2022-11-26T04:12:06.546Z,10.48
2022-11-26T04:14:53.582Z,11.38
2022-11-26T04:17:40.346Z,11.55
2022-11-26T04:20:53.199Z,11.68
2022-11-26T04:23:40.954Z,10.45
2022-11-26T04:26:27.581Z,11.52
2022-11-26T04:29:13.795Z,10.70
2022-11-26T04:31:59.976Z,11.63
2022-11-26T04:34:47.185Z,11.27
2022-11-26T04:37:34.105Z,11.18
2022-11-26T04:40:45.780Z,11.32
2022-11-26T04:43:32.153Z,12.30
2022-11-26T04:46:19.256Z,11.55
2022-11-26T04:49:05.845Z,11.48
2022-11-26T04:51:52.367Z,11.13
2022-11-26T04:54:39.480Z,11.38
2022-11-26T04:57:26.433Z,11.38
2022-11-26T05:00:13.233Z,11.43
2022-11-26T05:03:00.213Z,11.43
2022-11-26T05:05:47.537Z,11.40
2022-11-26T05:08:33.629Z,11.15
2022-11-26T05:11:20.258Z,11.38
2022-11-26T05:14:06.788Z,11.88
2022-11-26T05:16:53.091Z,11.65
2022-11-26T05:19:39.179Z,11.45
2022-11-26T05:22:25.756Z,12.05
2022-11-26T05:25:12.837Z,11.88
2022-11-26T05:27:59.115Z,11.40
2022-11-26T05:30:45.798Z,11.23
2022-11-26T05:33:31.880Z,11.98
2022-11-26T05:36:18.611Z,11.23
2022-11-26T05:39:05.339Z,11.27
2022-11-26T05:41:51.710Z,11.88
2022-11-26T05:44:38.558Z,11.45
2022-11-26T05:47:25.167Z,12.27
2022-11-26T05:50:11.526Z,12.07
2022-11-26T05:52:58.062Z,11.10
2022-11-26T05:55:44.269Z,12.38
2022-11-26T05:58:30.592Z,12.73
2022-11-26T06:01:16.909Z,11.80
2022-11-26T06:04:03.270Z,11.50
2022-11-26T06:06:49.385Z,12.55
2022-11-26T06:09:36.562Z,12.88
2022-11-26T06:12:23.278Z,13.10
2022-11-26T06:15:09.913Z,11.73
2022-11-26T06:17:56.340Z,12.07
2022-11-26T06:20:42.575Z,12.35
2022-11-26T06:23:28.787Z,12.57
2022-11-26T06:26:19.085Z,13.13
2022-11-26T06:29:05.772Z,13.00
2022-11-26T06:31:52.138Z,13.70
2022-11-26T06:34:40.190Z,13.63
2022-11-26T06:37:28.650Z,13.68
2022-11-26T06:40:19.366Z,13.43
2022-11-26T06:43:05.570Z,13.13
2022-11-26T06:45:52.543Z,13.63
2022-11-26T06:49:05.495Z,13.20
2022-11-26T06:51:51.724Z,13.93
2022-11-26T06:54:41.195Z,14.18
2022-11-26T06:57:30.132Z,13.45
2022-11-26T07:00:40.907Z,13.25
2022-11-26T07:03:33.129Z,14.18
2022-11-26T07:06:27.375Z,13.95
2022-11-26T07:09:15.020Z,14.50
2022-11-26T07:12:01.566Z,13.60
2022-11-26T07:14:47.822Z,14.27
2022-11-26T07:17:34.033Z,13.98
2022-11-26T07:20:20.184Z,14.98
2022-11-26T07:23:06.583Z,15.18
2022-11-26T07:25:53.031Z,14.38
2022-11-26T07:28:39.905Z,15.52
2022-11-26T07:31:26.266Z,16.23
2022-11-26T07:34:12.468Z,17.15
2022-11-26T07:36:58.686Z,15.82
2022-11-26T07:39:45.050Z,15.18
2022-11-26T07:42:32.470Z,16.65
2022-11-26T07:45:18.548Z,16.30
2022-11-26T07:48:23.221Z,15.50
2022-11-26T07:51:17.370Z,15.07
2022-11-26T07:54:06.172Z,14.32
2022-11-26T07:56:54.749Z,13.32
2022-11-26T07:59:41.117Z,14.05
2022-11-26T08:02:27.542Z,13.27
2022-11-26T08:05:13.660Z,14.18
2022-11-26T08:07:59.817Z,13.38
2022-11-26T08:10:46.018Z,12.82
2022-11-26T08:13:32.377Z,13.50
2022-11-26T08:16:19.178Z,13.63
2022-11-26T08:19:09.644Z,13.18
2022-11-26T08:21:55.991Z,14.15
2022-11-26T08:24:48.347Z,13.73
2022-11-26T08:27:35.333Z,14.30
2022-11-26T08:30:22.165Z,14.07
2022-11-26T08:33:11.133Z,13.13
2022-11-26T08:36:08.162Z,13.27
2022-11-26T08:38:54.782Z,13.57
2022-11-26T08:41:41.022Z,14.13
2022-11-26T08:44:27.781Z,13.52
2022-11-26T08:47:14.347Z,14.00
2022-11-26T08:50:00.803Z,14.10
2022-11-26T08:52:47.203Z,14.27
2022-11-26T08:55:58.657Z,14.95
2022-11-26T08:58:41.458Z,14.20
2022-11-26T09:01:29.638Z,15.75
2022-11-26T09:04:30.069Z,15.55
2022-11-26T09:07:16.890Z,15.77
2022-11-26T09:10:28.685Z,15.13
2022-11-26T09:13:19.713Z,15.95
2022-11-26T09:16:07.455Z,16.85
2022-11-26T09:18:54.660Z,16.58
2022-11-26T09:21:41.338Z,16.30
2022-11-26T09:24:28.282Z,16.13
2022-11-26T09:27:14.778Z,17.67
2022-11-26T09:30:00.874Z,18.00
2022-11-26T09:32:47.729Z,18.10
2022-11-26T09:35:35.111Z,17.35
2022-11-26T09:38:21.508Z,17.45
2022-11-26T09:41:13.859Z,19.15
2022-11-26T09:44:07.246Z,17.02
2022-11-26T09:47:11.637Z,17.73
2022-11-26T09:50:07.544Z,19.95
2022-11-26T09:53:00.329Z,20.25
2022-11-26T09:55:49.248Z,20.92
2022-11-26T09:58:41.356Z,21.90
2022-11-26T10:01:28.139Z,21.98
2022-11-26T10:04:20.287Z,21.33
2022-11-26T10:07:10.170Z,21.25
2022-11-26T10:09:57.206Z,18.95
2022-11-26T10:13:17.233Z,17.52
2022-11-26T10:16:19.566Z,18.02
2022-11-26T10:19:10.900Z,17.45
2022-11-26T10:22:01.598Z,18.30
2022-11-26T10:24:50.335Z,17.27
2022-11-26T10:27:37.523Z,17.73
2022-11-26T10:30:26.082Z,16.92
2022-11-26T10:33:13.408Z,17.40
2022-11-26T10:35:59.520Z,18.08
2022-11-26T10:38:46.304Z,18.30
2022-11-26T10:41:35.379Z,18.23
2022-11-26T10:44:32.443Z,18.98
2022-11-26T10:47:19.157Z,19.85
2022-11-26T10:53:32.393Z,18.48
2022-11-26T10:56:20.545Z,19.33
2022-11-26T10:59:15.023Z,20.08
2022-11-26T11:02:06.978Z,19.38
2022-11-26T11:04:54.790Z,19.38
2022-11-26T11:07:44.748Z,17.88
2022-11-26T11:10:30.763Z,17.35
2022-11-26T11:13:17.101Z,16.98
2022-11-26T11:16:13.988Z,16.83
2022-11-26T11:19:02.884Z,17.40
2022-11-26T11:21:49.257Z,16.45
2022-11-26T11:24:35.706Z,16.67
2022-11-26T11:27:27.962Z,17.70
2022-11-26T11:30:38.414Z,17.37
2022-11-26T11:33:27.745Z,16.75
2022-11-26T11:36:15.272Z,16.90
2022-11-26T11:39:02.676Z,17.75
2022-11-26T11:41:50.003Z,16.92
2022-11-26T11:44:44.024Z,17.02
2022-11-26T11:47:33.174Z,17.48
2022-11-26T11:50:29.425Z,16.55
2022-11-26T11:53:34.547Z,16.05
2022-11-26T11:56:21.316Z,16.48
2022-11-26T11:59:19.936Z,17.00
2022-11-26T12:02:27.067Z,16.10
2022-11-26T12:05:32.805Z,16.80
2022-11-26T12:08:24.995Z,17.00
2022-11-26T12:11:29.792Z,15.50
2022-11-26T12:14:25.517Z,15.30
2022-11-26T12:17:34.609Z,14.75
2022-11-26T12:20:31.221Z,14.98
2022-11-26T12:23:25.658Z,15.50
2022-11-26T12:26:17.850Z,16.23
2022-11-26T12:29:12.750Z,12.57
2022-11-26T12:32:01.496Z,12.95
2022-11-26T12:35:00.053Z,12.60
2022-11-26T12:37:51.433Z,13.68
2022-11-26T12:40:50.355Z,13.30
2022-11-26T12:43:44.353Z,14.77
2022-11-26T12:46:39.838Z,16.40
2022-11-26T12:49:36.586Z,16.80
2022-11-26T12:52:31.992Z,16.30
2022-11-26T12:55:22.061Z,16.85
2022-11-26T12:58:16.157Z,16.50
2022-11-26T13:01:03.015Z,16.17
2022-11-26T13:03:49.974Z,15.60
2022-11-26T13:06:48.217Z,14.88
2022-11-26T13:09:41.088Z,13.65
2022-11-26T13:12:38.766Z,13.77
2022-11-26T13:15:27.938Z,13.32
2022-11-26T13:18:32.955Z,12.25
2022-11-26T13:21:26.592Z,12.90
2022-11-26T13:24:31.697Z,13.90
2022-11-26T13:27:36.994Z,13.93
2022-11-26T13:30:41.883Z,13.98
2022-11-26T13:33:29.537Z,14.35
2022-11-26T13:36:16.102Z,14.98
2022-11-26T13:39:12.130Z,13.55
2022-11-26T13:42:17.616Z,13.85
2022-11-26T13:45:13.652Z,14.05
2022-11-26T13:48:09.549Z,13.18
2022-11-26T13:50:59.979Z,12.55
2022-11-26T13:53:57.431Z,13.55
2022-11-26T13:56:44.084Z,13.35
2022-11-26T13:59:31.291Z,13.65
2022-11-26T14:02:36.793Z,12.95
2022-11-26T14:05:24.344Z,14.32
2022-11-26T14:08:30.165Z,13.80
2022-11-26T14:11:35.226Z,15.27
2022-11-26T14:14:29.830Z,15.68
2022-11-26T14:17:22.881Z,15.05
2022-11-26T14:20:09.583Z,15.43
2022-11-26T14:22:56.099Z,15.98
2022-11-26T14:25:42.359Z,15.20
2022-11-26T14:28:28.630Z,14.68
2022-11-26T14:31:14.764Z,14.90
2022-11-26T14:34:09.690Z,14.25
2022-11-26T14:36:57.944Z,13.48
2022-11-26T14:39:44.188Z,14.75
2022-11-26T14:42:30.614Z,14.07
2022-11-26T14:45:17.151Z,14.40
2022-11-26T14:48:04.844Z,15.05
2022-11-26T14:50:51.477Z,14.63
2022-11-26T14:53:41.445Z,14.70
2022-11-26T14:56:28.596Z,15.10
2022-11-26T14:59:17.966Z,16.60
2022-11-26T15:02:04.154Z,17.50
2022-11-26T15:05:06.800Z,16.42
2022-11-26T15:08:17.307Z,15.93
2022-11-26T15:11:07.786Z,17.75
2022-11-26T15:13:54.085Z,18.33
2022-11-26T15:16:41.583Z,18.52
2022-11-26T15:19:28.832Z,16.73
2022-11-26T15:22:35.110Z,15.10
2022-11-26T15:25:22.972Z,13.77
2022-11-26T15:28:28.096Z,14.32
2022-11-26T15:31:14.343Z,14.32
2022-11-26T15:34:01.367Z,13.55
2022-11-26T15:36:48.000Z,13.57
2022-11-26T15:39:34.396Z,14.05
2022-11-26T15:42:29.104Z,13.55
2022-11-26T15:45:20.330Z,13.38
2022-11-26T15:48:07.861Z,14.25
2022-11-26T15:50:55.537Z,14.13
2022-11-26T15:53:47.726Z,13.40
2022-11-26T15:56:38.909Z,13.15
2022-11-26T15:59:30.938Z,13.90
2022-11-26T16:02:19.540Z,12.88
2022-11-26T16:05:06.176Z,12.05
2022-11-26T16:08:03.617Z,12.52
2022-11-26T16:11:07.883Z,12.25
2022-11-26T16:13:54.035Z,12.10
2022-11-26T16:16:40.531Z,12.05
2022-11-26T16:19:28.746Z,12.00
2022-11-26T16:22:40.608Z,11.75
2022-11-26T16:25:31.755Z,12.10
2022-11-26T16:28:18.208Z,12.77
2022-11-26T16:31:04.612Z,11.90
2022-11-26T16:33:51.007Z,13.77
2022-11-26T16:36:41.723Z,12.82
2022-11-26T16:39:30.306Z,14.18
2022-11-26T16:42:18.313Z,12.90
2022-11-26T16:45:05.274Z,12.55
2022-11-26T16:47:53.440Z,12.75
2022-11-26T16:50:39.485Z,12.90
2022-11-26T16:53:25.570Z,12.45
2022-11-26T16:56:36.265Z,12.20
2022-11-26T16:59:27.038Z,11.27
2022-11-26T17:02:33.608Z,11.93
2022-11-26T17:05:21.076Z,11.90
2022-11-26T17:08:08.228Z,12.25
2022-11-26T17:10:55.288Z,13.40
2022-11-26T17:13:41.776Z,12.77
2022-11-26T17:16:29.783Z,12.75
2022-11-26T17:19:16.547Z,11.60
2022-11-26T17:22:28.128Z,11.52
2022-11-26T17:25:15.463Z,11.38
2022-11-26T17:31:34.554Z,11.32
2022-11-26T17:34:21.113Z,11.00
2022-11-26T17:37:14.104Z,11.18
2022-11-26T17:40:01.174Z,11.93
2022-11-26T17:42:47.967Z,12.48
2022-11-26T17:45:35.145Z,12.35
2022-11-26T17:48:26.472Z,11.93
2022-11-26T17:51:14.655Z,13.30
2022-11-26T17:54:01.738Z,12.55
2022-11-26T17:56:47.992Z,12.05
2022-11-26T17:59:34.668Z,11.85
2022-11-26T18:02:21.453Z,12.15
2022-11-26T18:05:09.387Z,11.70
2022-11-26T18:07:56.102Z,11.27
2022-11-26T18:10:43.314Z,11.10
2022-11-26T18:13:30.332Z,10.80
2022-11-26T18:16:16.778Z,11.75
2022-11-26T18:19:03.177Z,12.10
2022-11-26T18:21:50.159Z,11.10
2022-11-26T18:24:36.509Z,10.75
2022-11-26T18:27:28.799Z,11.55
2022-11-26T18:30:15.500Z,11.32
2022-11-26T18:33:01.970Z,11.50
2022-11-26T18:35:51.934Z,11.45
2022-11-26T18:39:12.133Z,11.80
2022-11-26T18:44:55.158Z,11.95
2022-11-26T18:47:41.950Z,10.85
2022-11-26T18:50:29.063Z,10.95
2022-11-26T18:53:15.539Z,11.60
2022-11-26T18:56:02.333Z,11.30
2022-11-26T18:58:49.157Z,11.52
2022-11-26T19:01:35.628Z,9.77
2022-11-26T19:04:22.295Z,9.55
2022-11-26T19:07:10.508Z,10.23
2022-11-26T19:09:57.060Z,10.07
2022-11-26T19:12:43.473Z,10.43
2022-11-26T19:15:29.993Z,9.98
2022-11-26T19:18:16.178Z,9.98
2022-11-26T19:21:03.404Z,10.20
2022-11-26T19:23:51.225Z,10.30
2022-11-26T19:26:37.776Z,10.85
2022-11-26T19:29:24.039Z,11.45
2022-11-26T19:32:11.050Z,11.50
2022-11-26T19:35:02.619Z,11.05
2022-11-26T19:37:54.101Z,10.85
2022-11-26T19:40:40.874Z,11.75
2022-11-26T19:43:28.117Z,13.52
2022-11-26T19:46:17.065Z,13.82
2022-11-26T19:49:04.276Z,13.02
2022-11-26T19:51:51.019Z,13.60
2022-11-26T19:55:03.243Z,14.05
2022-11-26T19:57:49.644Z,14.05
2022-11-26T20:00:37.063Z,14.13
2022-11-26T20:03:23.871Z,13.95
2022-11-26T20:06:19.883Z,12.77
2022-11-26T20:09:08.326Z,14.05
2022-11-26T20:11:54.689Z,13.02
2022-11-26T20:14:41.115Z,14.32
2022-11-26T20:17:27.408Z,13.52
2022-11-26T20:20:13.646Z,13.57
2022-11-26T20:23:00.876Z,12.50
2022-11-26T20:25:47.845Z,13.75
2022-11-26T20:28:34.396Z,13.27
2022-11-26T20:31:24.159Z,13.35
2022-11-26T20:34:10.437Z,13.52
2022-11-26T20:36:56.681Z,13.50
2022-11-26T20:39:43.095Z,13.27
2022-11-26T20:42:29.558Z,13.88
2022-11-26T20:45:16.234Z,13.85
2022-11-26T20:48:03.799Z,13.48
2022-11-26T20:50:51.068Z,13.70
2022-11-26T20:53:38.318Z,17.45
2022-11-26T20:56:25.275Z,14.05
2022-11-26T20:59:12.991Z,14.13
2022-11-26T21:02:00.416Z,13.60
2022-11-26T21:04:48.101Z,14.25
2022-11-26T21:07:35.070Z,13.95
2022-11-26T21:10:25.433Z,15.10
2022-11-26T21:13:13.630Z,14.27
2022-11-26T21:16:04.058Z,14.07
2022-11-26T21:18:55.524Z,13.85
2022-11-26T21:21:42.796Z,13.15
2022-11-26T21:24:29.095Z,12.98
2022-11-26T21:27:16.338Z,13.07
2022-11-26T21:30:02.946Z,12.60
2022-11-26T21:35:51.104Z,12.60
2022-11-26T21:38:38.364Z,12.75
2022-11-26T21:41:25.174Z,13.07
2022-11-26T21:44:12.212Z,12.75
2022-11-26T21:46:59.258Z,12.95
2022-11-26T21:49:46.153Z,13.52
2022-11-26T21:52:32.527Z,13.20
2022-11-26T21:55:20.021Z,13.20
2022-11-26T21:58:06.885Z,12.52
2022-11-26T22:00:56.418Z,13.02
2022-11-26T22:03:44.196Z,12.50
2022-11-26T22:06:31.358Z,13.55
2022-11-26T22:09:18.286Z,13.57
2022-11-26T22:12:04.829Z,13.73
2022-11-26T22:14:51.002Z,13.45
2022-11-26T22:17:37.318Z,14.85
2022-11-26T22:20:24.444Z,14.05
2022-11-26T22:23:39.789Z,15.32
2022-11-26T22:26:27.983Z,15.35
2022-11-26T22:29:26.394Z,14.48
2022-11-26T22:32:12.787Z,15.25
2022-11-26T22:34:59.795Z,15.27
2022-11-26T22:37:46.154Z,14.45
2022-11-26T22:40:35.400Z,15.18
2022-11-26T22:43:21.414Z,14.32
2022-11-26T22:46:10.464Z,15.32
2022-11-26T22:48:59.765Z,14.85
2022-11-26T22:51:50.346Z,15.20
2022-11-26T22:54:37.197Z,15.10
2022-11-26T22:57:25.474Z,14.50
2022-11-26T23:00:15.306Z,14.55
2022-11-26T23:03:01.848Z,14.20
2022-11-26T23:05:48.314Z,14.77
2022-11-26T23:08:35.668Z,15.25
2022-11-26T23:11:34.115Z,14.82
2022-11-26T23:14:20.494Z,15.30
2022-11-26T23:17:06.793Z,14.77
2022-11-26T23:19:53.085Z,14.48
2022-11-26T23:22:40.158Z,15.70
2022-11-26T23:25:26.448Z,15.43
2022-11-26T23:28:14.087Z,15.73
2022-11-26T23:31:04.048Z,14.68
2022-11-26T23:33:50.843Z,14.82
2022-11-26T23:36:38.721Z,15.23
2022-11-26T23:39:25.160Z,14.45
2022-11-26T23:42:12.390Z,14.95
2022-11-26T23:44:58.639Z,15.18
2022-11-26T23:47:44.799Z,15.13
2022-11-26T23:50:32.095Z,14.85
2022-11-26T23:53:19.231Z,15.52
2022-11-26T23:56:07.045Z,15.18
2022-11-26T23:58:54.468Z,15.52
